Terminal Aerodrome Forecast
Issued by NWS

Home | Current Version | Previous Version | Text Only | Print | Product List | Glossary On
Versions: 1 2 3 4 5 6 7 8 9 10 11 12 13 14 15 16 17 18 19 20 21 22 23 24 25
000
FTUS43 KILX 282103 AAA
TAFDEC
TAF AMD
KDEC 282103Z 2821/2918 11012KT 6SM -SHRA BR VCTS SCT025CB OVC080
      TEMPO 2821/2824 3SM TSRA BR OVC025CB
     FM290000 09010KT 6SM BR VCSH OVC025
     FM290600 05009KT P6SM VCSH OVC010
     FM291000 07014G18KT 6SM -SHRA BR VCTS OVC010CB=

USA.gov is the U.S. government's official web portal to all federal, state and local government web resources and services.